createdAt,value
2018-02-17T00:01:51.826Z,-1.00
2018-02-17T00:04:19.444Z,-1.10
2018-02-17T00:06:47.070Z,-1.00
2018-02-17T00:09:14.653Z,-0.90
2018-02-17T00:11:42.285Z,-0.90
2018-02-17T00:14:09.884Z,-1.00
2018-02-17T00:16:37.503Z,-0.90
2018-02-17T00:19:05.142Z,-0.90
2018-02-17T00:21:32.758Z,-0.90
2018-02-17T00:24:00.348Z,-0.90
2018-02-17T00:26:28.005Z,-0.90
2018-02-17T00:28:55.616Z,-0.90
2018-02-17T00:31:23.225Z,-1.00
2018-02-17T00:33:50.863Z,-1.10
2018-02-17T00:36:18.508Z,-1.10
2018-02-17T00:38:46.113Z,-1.10
2018-02-17T00:41:13.748Z,-1.10
2018-02-17T00:43:41.350Z,-1.10
2018-02-17T00:46:09.367Z,-1.20
2018-02-17T00:48:36.985Z,-1.20
2018-02-17T00:51:05.045Z,-1.20
2018-02-17T00:53:33.056Z,-1.30
2018-02-17T00:56:00.684Z,-1.20
2018-02-17T00:58:28.317Z,-1.30
2018-02-17T01:00:55.973Z,-1.30
2018-02-17T01:03:23.581Z,-1.30
2018-02-17T01:05:51.221Z,-1.30
2018-02-17T01:08:19.268Z,-1.40
2018-02-17T01:10:46.933Z,-1.40
2018-02-17T01:13:14.549Z,-1.40
2018-02-17T01:15:42.157Z,-1.30
2018-02-17T01:18:09.802Z,-1.30
2018-02-17T01:20:37.434Z,-1.30
2018-02-17T01:23:05.082Z,-1.30
2018-02-17T01:25:32.741Z,-1.30
2018-02-17T01:28:00.357Z,-1.40
2018-02-17T01:30:27.972Z,-1.30
2018-02-17T01:32:55.612Z,-1.30
2018-02-17T01:35:23.246Z,-1.30
2018-02-17T01:37:50.848Z,-1.30
2018-02-17T01:40:18.493Z,-1.20
2018-02-17T01:42:46.512Z,-1.30
2018-02-17T01:45:14.116Z,-1.30
2018-02-17T01:47:41.739Z,-1.30
2018-02-17T01:50:21.092Z,-1.30
2018-02-17T01:52:48.764Z,-1.30
2018-02-17T01:55:16.371Z,-1.30
2018-02-17T01:57:43.999Z,-1.30
2018-02-17T02:00:11.615Z,-1.20
2018-02-17T02:02:39.240Z,-1.20
2018-02-17T02:05:06.849Z,-1.20
2018-02-17T02:07:34.472Z,-1.10
2018-02-17T02:10:02.071Z,-0.90
2018-02-17T02:12:29.726Z,-0.90
2018-02-17T02:14:57.376Z,-0.90
2018-02-17T02:17:25.001Z,-0.80
2018-02-17T02:19:52.629Z,-0.70
2018-02-17T02:22:20.637Z,-0.50
2018-02-17T02:24:48.277Z,-0.40
2018-02-17T02:27:15.891Z,-0.40
2018-02-17T02:29:43.557Z,-0.30
2018-02-17T02:32:11.129Z,-0.30
2018-02-17T02:34:38.749Z,-0.20
2018-02-17T02:37:06.320Z,-0.30
2018-02-17T02:39:33.906Z,-0.30
2018-02-17T02:42:01.919Z,-0.50
2018-02-17T02:44:29.514Z,-0.50
2018-02-17T02:46:57.121Z,-0.60
2018-02-17T02:49:24.731Z,-0.60
2018-02-17T02:51:52.311Z,-0.50
2018-02-17T02:54:19.919Z,-0.50
2018-02-17T02:56:47.598Z,-0.40
2018-02-17T02:59:15.238Z,-0.20
2018-02-17T03:01:42.830Z,-0.10
2018-02-17T03:04:10.491Z,0.00
2018-02-17T03:06:38.122Z,0.00
2018-02-17T03:09:05.738Z,0.00
2018-02-17T03:11:33.377Z,0.10
2018-02-17T03:14:00.999Z,0.20
2018-02-17T03:16:28.562Z,0.20
2018-02-17T03:18:56.156Z,0.20
2018-02-17T03:21:23.759Z,0.30
2018-02-17T03:23:51.325Z,0.30
2018-02-17T03:26:18.891Z,0.40
2018-02-17T03:28:46.490Z,0.50
2018-02-17T03:31:14.079Z,0.50
2018-02-17T03:33:41.719Z,0.50
2018-02-17T03:36:09.362Z,0.60
2018-02-17T03:38:36.919Z,0.50
2018-02-17T03:41:04.568Z,0.60
2018-02-17T03:43:32.174Z,0.70
2018-02-17T03:45:59.787Z,0.80
2018-02-17T03:48:27.343Z,0.80
2018-02-17T03:50:54.957Z,0.90
2018-02-17T03:53:22.530Z,0.90
2018-02-17T03:55:50.120Z,0.90
2018-02-17T03:58:17.706Z,0.90
2018-02-17T04:00:45.354Z,0.90
2018-02-17T04:03:12.947Z,1.00
2018-02-17T04:05:40.535Z,1.00
2018-02-17T04:08:08.134Z,1.00
2018-02-17T04:10:35.719Z,1.00
2018-02-17T04:13:03.324Z,1.10
2018-02-17T04:15:30.916Z,1.10
2018-02-17T04:17:58.512Z,1.10
2018-02-17T04:20:26.103Z,1.10
2018-02-17T04:22:53.683Z,1.20
2018-02-17T04:25:21.266Z,1.10
2018-02-17T04:27:49.270Z,1.10
2018-02-17T04:30:16.869Z,1.10
2018-02-17T04:32:44.483Z,1.10
2018-02-17T04:35:12.131Z,1.20
2018-02-17T04:37:39.726Z,1.20
2018-02-17T04:40:13.026Z,1.20
2018-02-17T04:42:51.311Z,1.20
2018-02-17T04:45:21.506Z,1.20
2018-02-17T04:51:11.791Z,1.10
2018-02-17T04:53:44.858Z,1.20
2018-02-17T04:56:12.466Z,1.10
2018-02-17T04:58:43.514Z,1.10
2018-02-17T05:01:12.670Z,1.10
2018-02-17T05:03:40.230Z,1.00
2018-02-17T05:06:16.445Z,1.00
2018-02-17T05:08:59.750Z,1.00
2018-02-17T05:11:27.386Z,1.00
2018-02-17T05:13:55.438Z,0.90
2018-02-17T05:16:25.555Z,0.90
2018-02-17T05:18:58.930Z,0.90
2018-02-17T05:21:26.572Z,0.90
2018-02-17T05:23:55.054Z,0.90
2018-02-17T05:26:33.483Z,0.90
2018-02-17T05:29:06.001Z,0.80
2018-02-17T05:31:33.598Z,0.80
2018-02-17T05:34:06.794Z,0.90
2018-02-17T05:36:50.162Z,0.90
2018-02-17T05:39:18.142Z,0.90
2018-02-17T05:42:04.542Z,0.90
2018-02-17T05:44:34.691Z,0.90
2018-02-17T05:47:05.154Z,0.90
2018-02-17T05:49:38.310Z,0.90
2018-02-17T05:52:05.909Z,0.90
2018-02-17T05:54:33.490Z,0.90
2018-02-17T05:57:01.142Z,0.90
2018-02-17T05:59:28.719Z,0.90
2018-02-17T06:01:56.327Z,0.90
2018-02-17T06:04:23.963Z,1.00
2018-02-17T06:06:51.550Z,1.00
2018-02-17T06:09:19.164Z,1.00
2018-02-17T06:11:46.727Z,1.00
2018-02-17T06:14:14.419Z,1.00
2018-02-17T06:16:41.994Z,0.90
2018-02-17T06:19:09.652Z,0.90
2018-02-17T06:21:37.282Z,0.90
2018-02-17T06:24:04.894Z,0.90
2018-02-17T06:26:32.870Z,0.90
2018-02-17T06:29:00.486Z,0.90
2018-02-17T06:31:28.036Z,0.90
2018-02-17T06:33:55.610Z,0.90
2018-02-17T06:36:23.171Z,0.90
2018-02-17T06:38:50.811Z,0.90
2018-02-17T06:41:18.375Z,1.00
2018-02-17T06:43:45.962Z,1.00
2018-02-17T06:46:13.513Z,1.00
2018-02-17T06:48:41.146Z,1.00
2018-02-17T06:51:08.723Z,1.00
2018-02-17T06:53:36.317Z,1.10
2018-02-17T06:56:03.879Z,1.10
2018-02-17T06:58:31.462Z,1.10
2018-02-17T07:00:59.009Z,1.10
2018-02-17T07:03:26.663Z,1.10
2018-02-17T07:05:54.259Z,1.10
2018-02-17T07:08:21.854Z,1.10
2018-02-17T07:10:49.426Z,1.20
2018-02-17T07:13:17.739Z,1.10
2018-02-17T07:15:45.455Z,1.10
2018-02-17T07:18:13.050Z,1.20
2018-02-17T07:20:40.622Z,1.20
2018-02-17T07:23:08.161Z,1.20
2018-02-17T07:25:35.757Z,1.20
2018-02-17T07:28:03.330Z,1.20
2018-02-17T07:30:31.313Z,1.20
2018-02-17T07:32:58.942Z,1.20
2018-02-17T07:35:26.522Z,1.30
2018-02-17T07:37:54.491Z,1.30
2018-02-17T07:40:23.457Z,1.30
2018-02-17T07:42:51.018Z,1.30
2018-02-17T07:45:18.655Z,1.30
2018-02-17T07:47:46.331Z,1.30
2018-02-17T07:50:13.906Z,1.30
2018-02-17T07:52:41.510Z,1.40
2018-02-17T07:55:09.498Z,1.40
2018-02-17T07:57:37.098Z,1.40
2018-02-17T08:00:05.070Z,1.50
2018-02-17T08:02:32.953Z,1.50
2018-02-17T08:05:00.891Z,1.50
2018-02-17T08:07:28.555Z,1.60
2018-02-17T08:09:56.178Z,1.60
2018-02-17T08:12:23.739Z,1.60
2018-02-17T08:14:51.342Z,1.60
2018-02-17T08:17:19.309Z,1.80
2018-02-17T08:19:46.930Z,1.80
2018-02-17T08:22:14.526Z,1.80
2018-02-17T08:24:42.175Z,1.80
2018-02-17T08:27:09.773Z,1.80
2018-02-17T08:29:37.374Z,1.80
2018-02-17T08:32:05.012Z,1.90
2018-02-17T08:34:33.091Z,1.90
2018-02-17T08:37:00.830Z,1.90
2018-02-17T08:39:28.516Z,1.90
2018-02-17T08:41:56.068Z,1.90
2018-02-17T08:44:23.635Z,2.00
2018-02-17T08:46:51.273Z,2.10
2018-02-17T08:49:18.842Z,2.10
2018-02-17T08:51:46.516Z,2.10
2018-02-17T08:54:14.095Z,2.10
2018-02-17T08:56:41.686Z,2.10
2018-02-17T08:59:09.321Z,2.20
2018-02-17T09:01:36.954Z,2.30
2018-02-17T09:04:06.580Z,2.30
2018-02-17T09:06:34.211Z,2.40
2018-02-17T09:09:01.816Z,2.40
2018-02-17T09:11:33.000Z,2.40
2018-02-17T09:14:00.587Z,2.40
2018-02-17T09:16:28.207Z,2.40
2018-02-17T09:18:55.777Z,2.40
2018-02-17T09:21:23.470Z,2.40
2018-02-17T09:23:51.100Z,2.40
2018-02-17T09:26:18.688Z,2.50
2018-02-17T09:28:46.255Z,2.50
2018-02-17T09:31:13.884Z,2.60
2018-02-17T09:33:41.443Z,2.60
2018-02-17T09:36:09.044Z,2.70
2018-02-17T09:38:37.006Z,2.70
2018-02-17T09:41:04.606Z,2.70
2018-02-17T09:43:32.267Z,2.80
2018-02-17T09:45:59.874Z,2.80
2018-02-17T09:48:27.486Z,2.80
2018-02-17T09:50:55.076Z,2.90
2018-02-17T09:53:22.715Z,2.90
2018-02-17T09:55:50.316Z,3.00
2018-02-17T09:58:17.902Z,3.00
2018-02-17T10:00:45.496Z,3.10
2018-02-17T10:03:13.086Z,3.10
2018-02-17T10:05:40.652Z,3.10
2018-02-17T10:08:08.248Z,3.10
2018-02-17T10:10:35.802Z,3.00
2018-02-17T10:13:03.394Z,3.00
2018-02-17T10:15:30.962Z,3.00
2018-02-17T10:17:58.578Z,3.00
2018-02-17T10:20:26.146Z,3.00
2018-02-17T10:22:53.783Z,3.00
2018-02-17T10:25:21.355Z,3.10
2018-02-17T10:27:48.968Z,3.10
2018-02-17T10:30:16.559Z,3.10
2018-02-17T10:32:44.113Z,3.10
2018-02-17T10:35:11.723Z,3.00
2018-02-17T10:37:39.291Z,3.00
2018-02-17T10:40:06.906Z,3.00
2018-02-17T10:42:34.498Z,3.00
2018-02-17T10:45:02.140Z,2.90
2018-02-17T10:47:29.738Z,2.80
2018-02-17T10:49:57.330Z,2.80
2018-02-17T10:52:24.926Z,2.70
2018-02-17T10:54:52.548Z,2.70
2018-02-17T10:57:20.131Z,2.60
2018-02-17T10:59:47.742Z,2.50
2018-02-17T11:02:15.286Z,2.50
2018-02-17T11:04:42.939Z,2.40
2018-02-17T11:07:10.566Z,2.40
2018-02-17T11:09:38.150Z,2.40
2018-02-17T11:12:05.779Z,2.30
2018-02-17T11:14:33.388Z,2.40
2018-02-17T11:17:00.992Z,2.40
2018-02-17T11:19:28.634Z,2.40
2018-02-17T11:21:56.615Z,2.40
2018-02-17T11:24:24.272Z,2.40
2018-02-17T11:26:52.529Z,2.30
2018-02-17T11:29:20.094Z,2.30
2018-02-17T11:31:47.696Z,2.30
2018-02-17T11:34:15.437Z,2.20
2018-02-17T11:36:43.044Z,2.20
2018-02-17T11:39:10.665Z,2.10
2018-02-17T11:41:38.228Z,2.10
2018-02-17T11:44:05.819Z,2.10
2018-02-17T11:46:33.413Z,2.10
2018-02-17T11:49:01.036Z,2.00
2018-02-17T11:51:28.631Z,2.00
2018-02-17T11:53:56.252Z,1.90
2018-02-17T11:56:24.300Z,1.90
2018-02-17T11:58:51.890Z,1.90
2018-02-17T12:01:19.544Z,1.90
2018-02-17T12:03:47.137Z,1.90
2018-02-17T12:06:14.742Z,1.90
2018-02-17T12:08:42.320Z,2.00
2018-02-17T12:11:10.053Z,1.90
2018-02-17T12:13:42.595Z,1.90
2018-02-17T12:16:10.169Z,1.90
2018-02-17T12:18:39.094Z,1.90
2018-02-17T12:21:07.306Z,2.00
2018-02-17T12:23:34.825Z,2.00
2018-02-17T12:26:02.659Z,2.00
2018-02-17T12:28:31.277Z,2.10
2018-02-17T12:31:08.994Z,2.10
2018-02-17T12:33:38.215Z,2.10
2018-02-17T12:36:09.076Z,2.20
2018-02-17T12:38:47.356Z,2.20
2018-02-17T12:41:16.259Z,2.30
2018-02-17T12:43:44.674Z,2.30
2018-02-17T12:46:15.903Z,2.30
2018-02-17T12:48:43.598Z,2.30
2018-02-17T12:51:12.452Z,2.30
2018-02-17T12:53:39.998Z,2.30
2018-02-17T12:56:07.536Z,2.40
2018-02-17T12:58:35.858Z,2.40
2018-02-17T13:01:03.625Z,2.40
2018-02-17T13:03:31.159Z,2.40
2018-02-17T13:05:58.722Z,2.40
2018-02-17T13:08:26.246Z,2.40
2018-02-17T13:10:53.788Z,2.40
2018-02-17T13:13:21.311Z,2.50
2018-02-17T13:15:48.861Z,2.50
2018-02-17T13:18:16.896Z,2.50
2018-02-17T13:22:11.348Z,2.50
2018-02-17T13:24:38.964Z,2.50
2018-02-17T13:27:08.698Z,2.60
2018-02-17T13:29:36.487Z,2.50
2018-02-17T13:32:04.030Z,2.40
2018-02-17T13:34:31.564Z,2.30
2018-02-17T13:36:59.109Z,2.20
2018-02-17T13:39:26.638Z,2.10
2018-02-17T13:41:54.214Z,2.10
2018-02-17T13:44:25.265Z,2.10
2018-02-17T13:46:52.814Z,2.10
2018-02-17T13:49:20.349Z,2.20
2018-02-17T13:51:47.923Z,2.30
2018-02-17T13:54:15.492Z,2.30
2018-02-17T13:56:43.074Z,2.40
2018-02-17T13:59:10.621Z,2.40
2018-02-17T14:01:38.176Z,2.40
2018-02-17T14:04:05.721Z,2.40
2018-02-17T14:06:33.742Z,2.40
2018-02-17T14:09:01.355Z,2.40
2018-02-17T14:11:28.903Z,2.40
2018-02-17T14:14:08.852Z,2.50
2018-02-17T14:16:36.418Z,2.60
2018-02-17T14:19:03.973Z,2.60
2018-02-17T14:21:31.528Z,2.70
2018-02-17T14:23:59.158Z,2.70
2018-02-17T14:26:26.727Z,2.70
2018-02-17T14:28:54.286Z,2.70
2018-02-17T14:31:21.804Z,2.70
2018-02-17T14:33:49.346Z,2.70
2018-02-17T14:36:16.879Z,2.70
2018-02-17T14:38:44.433Z,2.70
2018-02-17T14:41:11.950Z,2.60
2018-02-17T14:43:39.487Z,2.60
2018-02-17T14:46:07.254Z,2.40
2018-02-17T14:48:34.894Z,2.30
2018-02-17T14:51:02.716Z,2.20
2018-02-17T14:53:30.638Z,2.20
2018-02-17T14:56:03.505Z,2.20
2018-02-17T14:58:31.102Z,2.20
2018-02-17T15:00:58.945Z,2.20
2018-02-17T15:03:26.538Z,2.20
2018-02-17T15:05:54.080Z,2.20
2018-02-17T15:08:21.728Z,2.10
2018-02-17T15:10:49.340Z,2.10
2018-02-17T15:13:17.340Z,1.90
2018-02-17T15:15:45.209Z,1.90
2018-02-17T15:18:12.854Z,1.90
2018-02-17T15:20:40.451Z,1.90
2018-02-17T15:23:08.015Z,2.00
2018-02-17T15:25:35.667Z,2.00
2018-02-17T15:28:03.227Z,2.10
2018-02-17T15:30:30.822Z,2.10
2018-02-17T15:32:58.426Z,2.10
2018-02-17T15:35:25.999Z,2.10
2018-02-17T15:37:53.646Z,2.10
2018-02-17T15:40:21.278Z,2.10
2018-02-17T15:42:48.847Z,2.10
2018-02-17T15:45:16.438Z,2.10
2018-02-17T15:47:44.011Z,2.10
2018-02-17T15:50:11.601Z,2.10
2018-02-17T15:52:39.223Z,2.10
2018-02-17T15:55:07.132Z,2.00
2018-02-17T15:57:34.758Z,2.00
2018-02-17T16:00:02.697Z,1.90
2018-02-17T16:02:30.667Z,2.00
2018-02-17T16:04:58.275Z,1.90
2018-02-17T16:07:27.138Z,1.80
2018-02-17T16:09:55.722Z,1.80
2018-02-17T16:12:23.267Z,1.80
2018-02-17T16:14:50.884Z,1.70
2018-02-17T16:17:18.478Z,1.70
2018-02-17T16:19:46.062Z,1.70
2018-02-17T16:22:13.630Z,1.60
2018-02-17T16:24:41.227Z,1.60
2018-02-17T16:27:16.618Z,1.60
2018-02-17T16:29:44.241Z,1.60
2018-02-17T16:32:11.806Z,1.50
2018-02-17T16:34:39.399Z,1.50
2018-02-17T16:37:07.024Z,1.50
2018-02-17T16:39:35.292Z,1.50
2018-02-17T16:42:03.706Z,1.50
2018-02-17T16:44:31.567Z,1.50
2018-02-17T16:46:59.234Z,1.40
2018-02-17T16:49:27.279Z,1.40
2018-02-17T16:51:55.020Z,1.40
2018-02-17T16:54:22.626Z,1.40
2018-02-17T16:56:50.225Z,1.40
2018-02-17T16:59:17.826Z,1.40
2018-02-17T17:01:45.419Z,1.30
2018-02-17T17:04:13.015Z,1.30
2018-02-17T17:06:40.606Z,1.30
2018-02-17T17:09:08.240Z,1.40
2018-02-17T17:11:35.828Z,1.40
2018-02-17T17:14:03.405Z,1.40
2018-02-17T17:16:31.034Z,1.30
2018-02-17T17:18:58.600Z,1.30
2018-02-17T17:50:12.500Z,1.30
2018-02-17T17:52:40.115Z,1.30
2018-02-17T17:55:07.710Z,1.20
2018-02-17T17:57:35.351Z,1.20
2018-02-17T18:00:02.965Z,1.30
2018-02-17T18:02:30.555Z,1.30
2018-02-17T18:04:58.122Z,1.30
2018-02-17T18:07:25.721Z,1.20
2018-02-17T18:09:53.306Z,1.30
2018-02-17T18:12:20.931Z,1.20
2018-02-17T18:14:48.499Z,1.20
2018-02-17T18:17:16.095Z,1.20
2018-02-17T18:19:44.160Z,1.20
2018-02-17T18:22:11.858Z,1.20
2018-02-17T18:24:39.420Z,1.30
2018-02-17T18:27:07.016Z,1.30
2018-02-17T18:29:34.618Z,1.30
2018-02-17T18:32:02.194Z,1.30
2018-02-17T18:34:29.804Z,1.30
2018-02-17T18:36:57.378Z,1.30
2018-02-17T18:39:25.014Z,1.20
2018-02-17T18:41:52.584Z,1.20
2018-02-17T18:44:20.214Z,1.20
2018-02-17T18:46:47.786Z,1.20
2018-02-17T18:49:15.387Z,1.20
2018-02-17T18:51:42.944Z,1.20
2018-02-17T18:54:10.619Z,1.20
2018-02-17T18:56:38.238Z,1.20
2018-02-17T18:59:05.835Z,1.20
2018-02-17T19:01:33.414Z,1.20
2018-02-17T19:04:00.994Z,1.20
2018-02-17T19:06:28.619Z,1.20
2018-02-17T19:08:56.212Z,1.20
2018-02-17T19:11:23.835Z,1.20
2018-02-17T19:13:51.645Z,1.20
2018-02-17T19:16:19.270Z,1.20
2018-02-17T19:18:46.875Z,1.20
2018-02-17T19:21:14.818Z,1.20
2018-02-17T19:23:42.462Z,1.20
2018-02-17T19:26:10.054Z,1.20
2018-02-17T19:28:37.659Z,1.20
2018-02-17T19:31:05.274Z,1.20
2018-02-17T19:33:33.846Z,1.10
2018-02-17T19:36:01.477Z,1.00
2018-02-17T19:38:29.125Z,0.90
2018-02-17T19:40:56.738Z,0.90
2018-02-17T19:43:24.324Z,0.80
2018-02-17T19:45:51.892Z,0.80
2018-02-17T19:48:19.710Z,0.80
2018-02-17T19:50:47.307Z,0.90
2018-02-17T19:53:14.915Z,0.90
2018-02-17T19:55:44.029Z,0.90
2018-02-17T19:58:11.913Z,0.90
2018-02-17T20:00:39.509Z,0.90
2018-02-17T20:03:07.059Z,0.90
2018-02-17T20:05:34.735Z,1.00
2018-02-17T20:08:02.384Z,1.00
2018-02-17T20:10:30.028Z,1.00
2018-02-17T20:12:57.610Z,1.00
2018-02-17T20:15:25.214Z,0.90
2018-02-17T20:17:52.799Z,0.90
2018-02-17T20:20:20.396Z,0.80
2018-02-17T20:22:48.051Z,0.80
2018-02-17T20:25:15.734Z,0.70
2018-02-17T20:27:43.291Z,0.70
2018-02-17T20:30:11.237Z,0.60
2018-02-17T20:32:45.959Z,0.60
2018-02-17T20:35:13.575Z,0.50
2018-02-17T20:37:41.571Z,0.50
2018-02-17T20:40:09.382Z,0.50
2018-02-17T20:42:39.013Z,0.50
2018-02-17T20:45:16.207Z,0.50
2018-02-17T20:47:43.786Z,0.50
2018-02-17T20:50:11.426Z,0.50
2018-02-17T20:52:39.370Z,0.50
2018-02-17T20:55:07.014Z,0.50
2018-02-17T20:57:34.795Z,0.50
2018-02-17T21:00:02.389Z,0.50
2018-02-17T21:02:31.244Z,0.50
2018-02-17T21:04:58.878Z,0.60
2018-02-17T21:07:26.452Z,0.60
2018-02-17T21:09:54.085Z,0.60
2018-02-17T21:12:21.658Z,0.60
2018-02-17T21:14:49.282Z,0.60
2018-02-17T21:17:16.876Z,0.60
2018-02-17T21:19:44.455Z,0.60
2018-02-17T21:22:12.061Z,0.60
2018-02-17T21:24:39.650Z,0.60
2018-02-17T21:27:07.235Z,0.60
2018-02-17T21:29:34.841Z,0.60
2018-02-17T21:32:02.415Z,0.60
2018-02-17T21:34:30.059Z,0.60
2018-02-17T21:36:57.586Z,0.70
2018-02-17T21:39:25.249Z,0.70
2018-02-17T21:41:52.850Z,0.70
2018-02-17T21:44:20.423Z,0.60
2018-02-17T21:46:48.079Z,0.50
2018-02-17T21:49:15.723Z,0.50
2018-02-17T21:51:43.477Z,0.50
2018-02-17T21:54:11.949Z,0.40
2018-02-17T21:56:40.263Z,0.50
2018-02-17T21:59:07.829Z,0.50
2018-02-17T22:01:35.465Z,0.40
2018-02-17T22:04:03.090Z,0.40
2018-02-17T22:06:30.687Z,0.40
2018-02-17T22:08:58.259Z,0.40
2018-02-17T22:11:25.916Z,0.40
2018-02-17T22:13:53.763Z,0.40
2018-02-17T22:16:21.973Z,0.50
2018-02-17T22:18:49.580Z,0.50
2018-02-17T22:21:17.180Z,0.40
2018-02-17T22:23:44.782Z,0.40
2018-02-17T22:26:12.393Z,0.40
2018-02-17T22:28:47.108Z,0.20
2018-02-17T22:31:14.778Z,0.20
2018-02-17T22:33:42.357Z,0.30
2018-02-17T22:36:09.960Z,0.30
2018-02-17T22:38:37.539Z,0.30
2018-02-17T22:41:05.127Z,0.40
2018-02-17T22:43:32.788Z,0.20
2018-02-17T22:46:00.363Z,0.20
2018-02-17T22:48:28.356Z,0.20
2018-02-17T22:50:55.972Z,0.20
2018-02-17T22:53:23.534Z,0.10
2018-02-17T22:55:51.141Z,0.00
2018-02-17T22:58:18.725Z,0.00
2018-02-17T23:00:46.315Z,0.00
2018-02-17T23:03:14.009Z,0.10
2018-02-17T23:05:41.851Z,0.00
2018-02-17T23:08:09.892Z,0.00
2018-02-17T23:10:37.736Z,0.00
2018-02-17T23:13:05.338Z,0.00
2018-02-17T23:15:32.948Z,0.00
2018-02-17T23:18:00.553Z,-0.10
2018-02-17T23:20:28.148Z,-0.10
2018-02-17T23:22:55.867Z,-0.10
2018-02-17T23:25:23.512Z,-0.10
2018-02-17T23:27:51.136Z,-0.10
2018-02-17T23:30:18.989Z,-0.20
2018-02-17T23:32:46.582Z,-0.20
2018-02-17T23:35:14.762Z,-0.20
2018-02-17T23:37:42.380Z,-0.20
2018-02-17T23:40:09.977Z,-0.30
2018-02-17T23:42:37.643Z,-0.40
2018-02-17T23:45:05.683Z,-0.50
2018-02-17T23:47:33.321Z,-0.50
2018-02-17T23:50:00.901Z,-0.50
2018-02-17T23:52:28.539Z,-0.50
2018-02-17T23:54:56.128Z,-0.50
2018-02-17T23:57:23.727Z,-0.50
2018-02-17T23:59:51.410Z,-0.50
